Terminal Aerodrome Forecast
Issued by NWS

Home | Current Version | Previous Version | Graphics & Text | Print | Product List | Glossary On
Versions: 1 2 3 4 5 6 7 8 9 10 11 12 13 14 15 16 17 18 19
023
FTUS43 KLSX 271125
TAFSUS
TAF
KSUS 271125Z 2712/2812 00000KT 6SM BR SCT009 SCT040
      TEMPO 2712/2714 3SM BR BKN009
     FM271400 VRB03KT P6SM VCSH SCT040 SCT150
     FM271700 09005KT P6SM SCT040 SCT150
     FM272000 07006KT P6SM VCTS BKN045CB
     FM280100 VRB03KT P6SM SCT045
     FM280600 00000KT 5SM BR SCT250=

USA.gov is the U.S. government's official web portal to all federal, state and local government web resources and services.